createdAt,value
2018-10-09T00:01:11.092Z,34.20
2018-10-09T00:03:40.424Z,35.43
2018-10-09T00:06:09.702Z,36.57
2018-10-09T00:08:39.050Z,41.20
2018-10-09T00:11:08.618Z,40.10
2018-10-09T00:13:38.156Z,39.97
2018-10-09T00:16:07.513Z,37.23
2018-10-09T00:18:36.853Z,34.87
2018-10-09T00:21:06.172Z,37.07
2018-10-09T00:23:35.496Z,35.77
2018-10-09T00:26:04.867Z,36.90
2018-10-09T00:28:34.185Z,37.10
2018-10-09T00:31:03.534Z,37.40
2018-10-09T00:33:32.856Z,36.50
2018-10-09T00:36:02.210Z,33.27
2018-10-09T00:38:31.572Z,39.27
2018-10-09T00:41:00.888Z,36.63
2018-10-09T00:43:30.246Z,34.17
2018-10-09T00:45:59.584Z,35.03
2018-10-09T00:48:28.918Z,40.30
2018-10-09T00:50:58.216Z,35.60
2018-10-09T00:53:27.505Z,39.50
2018-10-09T00:55:56.861Z,43.90
2018-10-09T00:58:26.147Z,38.97
2018-10-09T01:00:55.481Z,36.77
2018-10-09T01:03:24.733Z,37.93
2018-10-09T01:05:54.058Z,35.00
2018-10-09T01:08:23.380Z,34.70
2018-10-09T01:10:52.724Z,33.90
2018-10-09T01:13:22.005Z,29.60
2018-10-09T01:15:51.558Z,32.20
2018-10-09T01:18:20.880Z,30.53
2018-10-09T01:20:50.228Z,30.70
2018-10-09T01:23:19.562Z,29.70
2018-10-09T01:25:48.867Z,30.40
2018-10-09T01:28:18.177Z,31.87
2018-10-09T01:30:47.500Z,31.73
2018-10-09T01:33:16.824Z,32.17
2018-10-09T01:35:46.215Z,29.37
2018-10-09T01:38:15.545Z,32.77
2018-10-09T01:40:44.861Z,30.70
2018-10-09T01:43:14.152Z,35.97
2018-10-09T01:45:43.567Z,39.00
2018-10-09T01:48:12.855Z,42.50
2018-10-09T01:50:42.178Z,40.70
2018-10-09T01:53:11.485Z,43.90
2018-10-09T01:55:40.841Z,37.63
2018-10-09T01:58:10.190Z,38.70
2018-10-09T02:00:39.520Z,38.23
2018-10-09T02:03:08.865Z,37.80
2018-10-09T02:05:38.148Z,36.87
2018-10-09T02:08:07.486Z,52.17
2018-10-09T02:10:36.843Z,39.87
2018-10-09T02:13:06.190Z,55.80
2018-10-09T02:15:35.485Z,37.43
2018-10-09T02:18:04.834Z,49.57
2018-10-09T02:20:34.120Z,41.33
2018-10-09T02:23:03.461Z,36.30
2018-10-09T02:25:32.745Z,45.13
2018-10-09T02:28:02.076Z,38.37
2018-10-09T02:30:31.386Z,38.03
2018-10-09T02:33:00.707Z,37.40
2018-10-09T02:35:29.992Z,34.73
2018-10-09T02:37:59.269Z,38.50
2018-10-09T02:40:28.579Z,31.70
2018-10-09T02:42:57.901Z,33.27
2018-10-09T02:45:27.386Z,31.93
2018-10-09T02:47:56.740Z,33.77
2018-10-09T02:50:26.017Z,34.77
2018-10-09T02:52:55.321Z,33.07
2018-10-09T02:55:24.622Z,39.07
2018-10-09T02:57:53.948Z,43.17
2018-10-09T03:00:23.241Z,46.30
2018-10-09T03:02:52.558Z,37.30
2018-10-09T03:05:21.839Z,36.97
2018-10-09T03:07:51.652Z,36.83
2018-10-09T03:10:20.990Z,40.53
2018-10-09T03:12:50.309Z,35.40
2018-10-09T03:15:19.682Z,36.30
2018-10-09T03:17:48.966Z,41.27
2018-10-09T03:20:18.306Z,35.70
2018-10-09T03:22:47.713Z,35.50
2018-10-09T03:25:17.021Z,44.53
2018-10-09T03:27:46.330Z,45.07
2018-10-09T03:30:15.660Z,34.00
2018-10-09T03:32:44.981Z,47.17
2018-10-09T03:35:14.326Z,41.63
2018-10-09T03:37:43.633Z,40.00
2018-10-09T03:40:12.927Z,38.47
2018-10-09T03:42:42.218Z,38.57
2018-10-09T03:45:11.559Z,51.20
2018-10-09T03:47:40.864Z,52.00
2018-10-09T03:50:10.201Z,36.13
2018-10-09T03:52:39.522Z,49.10
2018-10-09T03:55:08.856Z,40.10
2018-10-09T03:57:38.146Z,40.77
2018-10-09T04:00:07.458Z,34.87
2018-10-09T04:02:36.753Z,32.20
2018-10-09T04:05:06.085Z,31.80
2018-10-09T04:07:35.429Z,60.80
2018-10-09T04:10:04.768Z,38.73
2018-10-09T04:12:34.127Z,63.70
2018-10-09T04:15:03.620Z,33.90
2018-10-09T04:17:32.985Z,52.77
2018-10-09T04:20:02.287Z,40.77
2018-10-09T04:22:31.630Z,39.07
2018-10-09T04:25:00.966Z,36.50
2018-10-09T04:27:30.311Z,35.63
2018-10-09T04:29:59.593Z,31.23
2018-10-09T04:32:28.905Z,34.23
2018-10-09T04:34:58.270Z,30.57
2018-10-09T04:37:27.609Z,29.83
2018-10-09T04:39:56.913Z,33.20
2018-10-09T04:42:26.271Z,39.57
2018-10-09T04:44:55.565Z,31.10
2018-10-09T04:47:24.938Z,40.27
2018-10-09T04:49:54.250Z,38.90
2018-10-09T04:52:23.605Z,32.63
2018-10-09T04:54:52.921Z,42.20
2018-10-09T04:57:22.233Z,36.67
2018-10-09T04:59:51.614Z,33.47
2018-10-09T05:02:20.950Z,31.20
2018-10-09T05:04:50.234Z,37.20
2018-10-09T05:07:19.572Z,36.50
2018-10-09T05:09:48.816Z,34.00
2018-10-09T05:12:18.158Z,37.33
2018-10-09T05:14:47.385Z,40.53
2018-10-09T05:17:16.649Z,36.37
2018-10-09T05:19:45.925Z,37.10
2018-10-09T05:22:15.246Z,31.30
2018-10-09T05:24:44.501Z,34.17
2018-10-09T05:27:13.761Z,29.53
2018-10-09T05:29:43.012Z,29.13
2018-10-09T05:32:12.317Z,27.47
2018-10-09T05:34:41.565Z,38.93
2018-10-09T05:37:10.845Z,26.80
2018-10-09T05:39:40.142Z,28.27
2018-10-09T05:42:09.441Z,30.03
2018-10-09T05:44:38.784Z,28.90
2018-10-09T05:47:08.086Z,28.07
2018-10-09T05:49:37.448Z,27.10
2018-10-09T05:52:07.456Z,27.13
2018-10-09T05:54:37.245Z,27.37
2018-10-09T05:57:06.998Z,26.73
2018-10-09T05:59:36.298Z,23.73
2018-10-09T06:02:05.604Z,24.30
2018-10-09T06:04:34.955Z,25.77
2018-10-09T06:07:04.334Z,25.93
2018-10-09T06:09:33.651Z,25.53
2018-10-09T06:12:02.934Z,25.17
2018-10-09T06:14:32.289Z,21.87
2018-10-09T06:17:01.605Z,23.63
2018-10-09T06:19:30.944Z,21.00
2018-10-09T06:22:00.288Z,20.90
2018-10-09T06:24:29.650Z,21.23
2018-10-09T06:26:59.002Z,22.53
2018-10-09T06:29:28.318Z,20.97
2018-10-09T06:31:57.645Z,23.73
2018-10-09T06:34:26.970Z,22.60
2018-10-09T06:36:56.307Z,24.47
2018-10-09T06:39:25.635Z,24.37
2018-10-09T06:41:54.942Z,31.47
2018-10-09T06:44:24.250Z,28.53
2018-10-09T06:46:53.604Z,29.87
2018-10-09T06:49:22.942Z,26.70
2018-10-09T06:51:52.266Z,26.57
2018-10-09T06:54:21.654Z,24.60
2018-10-09T06:56:50.955Z,28.97
2018-10-09T06:59:20.228Z,26.03
2018-10-09T07:01:49.565Z,24.20
2018-10-09T07:04:18.847Z,31.37
2018-10-09T07:06:48.282Z,23.80
2018-10-09T07:09:17.605Z,24.00
2018-10-09T07:11:46.997Z,24.33
2018-10-09T07:14:16.274Z,23.40
2018-10-09T07:16:50.763Z,22.10
2018-10-09T07:19:20.078Z,19.13
2018-10-09T07:21:49.418Z,20.80
2018-10-09T07:24:18.734Z,20.13
2018-10-09T07:26:48.070Z,24.87
2018-10-09T07:29:17.359Z,20.33
2018-10-09T07:31:46.678Z,23.33
2018-10-09T07:34:15.960Z,21.70
2018-10-09T07:36:45.290Z,22.70
2018-10-09T07:39:14.842Z,20.67
2018-10-09T07:41:44.165Z,20.50
2018-10-09T07:44:13.463Z,25.10
2018-10-09T07:46:42.793Z,21.93
2018-10-09T07:49:12.104Z,24.30
2018-10-09T07:51:41.453Z,24.70
2018-10-09T07:54:10.750Z,27.20
2018-10-09T07:56:40.069Z,30.23
2018-10-09T07:59:09.375Z,21.13
2018-10-09T08:01:38.725Z,21.60
2018-10-09T08:04:08.086Z,23.43
2018-10-09T08:06:37.465Z,30.57
2018-10-09T08:09:09.516Z,23.33
2018-10-09T08:11:38.817Z,22.20
2018-10-09T08:14:08.492Z,28.87
2018-10-09T08:16:37.809Z,23.40
2018-10-09T08:19:07.140Z,21.57
2018-10-09T08:21:36.455Z,20.37
2018-10-09T08:24:05.802Z,28.90
2018-10-09T08:26:39.508Z,24.27
2018-10-09T08:29:08.832Z,24.40
2018-10-09T08:31:38.142Z,25.33
2018-10-09T08:34:07.825Z,26.30
2018-10-09T08:36:37.148Z,24.27
2018-10-09T08:39:06.677Z,32.00
2018-10-09T08:41:36.274Z,29.20
2018-10-09T08:44:05.579Z,29.83
2018-10-09T08:46:34.846Z,25.53
2018-10-09T08:49:04.107Z,34.00
2018-10-09T08:51:33.369Z,24.07
2018-10-09T08:54:03.033Z,24.93
2018-10-09T08:56:33.209Z,32.00
2018-10-09T08:59:02.594Z,33.60
2018-10-09T09:01:31.820Z,30.43
2018-10-09T09:04:01.119Z,28.87
2018-10-09T09:06:30.426Z,25.43
2018-10-09T09:08:59.708Z,25.33
2018-10-09T09:11:28.969Z,28.20
2018-10-09T09:13:58.284Z,25.90
2018-10-09T09:16:27.555Z,23.83
2018-10-09T09:18:56.843Z,27.23
2018-10-09T09:21:26.129Z,27.77
2018-10-09T09:23:55.394Z,23.90
2018-10-09T09:26:24.696Z,24.97
2018-10-09T09:28:53.958Z,24.57
2018-10-09T09:31:23.211Z,21.60
2018-10-09T09:33:52.495Z,24.13
2018-10-09T09:36:21.807Z,24.27
2018-10-09T09:38:51.068Z,22.23
2018-10-09T09:41:20.489Z,22.23
2018-10-09T09:43:49.749Z,23.10
2018-10-09T09:46:19.238Z,23.73
2018-10-09T09:48:48.477Z,22.33
2018-10-09T09:51:17.776Z,25.37
2018-10-09T09:53:47.031Z,26.70
2018-10-09T09:56:16.327Z,22.17
2018-10-09T09:58:45.779Z,24.17
2018-10-09T10:01:14.887Z,21.43
2018-10-09T10:03:44.267Z,30.60
2018-10-09T10:06:13.523Z,20.10
2018-10-09T10:08:42.797Z,25.47
2018-10-09T10:11:12.083Z,22.73
2018-10-09T10:13:41.332Z,22.93
2018-10-09T10:16:10.619Z,30.80
2018-10-09T10:18:39.909Z,22.93
2018-10-09T10:21:09.208Z,23.00
2018-10-09T10:23:38.441Z,30.53
2018-10-09T10:26:08.110Z,29.30
2018-10-09T10:28:37.415Z,23.97
2018-10-09T10:31:06.750Z,26.00
2018-10-09T10:33:36.033Z,25.17
2018-10-09T10:36:05.338Z,24.00
2018-10-09T10:38:34.661Z,24.40
2018-10-09T10:41:03.981Z,28.47
2018-10-09T10:43:33.288Z,24.07
2018-10-09T10:46:02.613Z,21.87
2018-10-09T10:48:31.937Z,24.07
2018-10-09T10:51:01.259Z,22.50
2018-10-09T10:53:30.570Z,23.57
2018-10-09T10:55:59.931Z,24.50
2018-10-09T10:58:29.177Z,31.30
2018-10-09T11:00:58.421Z,26.00
2018-10-09T11:03:27.714Z,32.13
2018-10-09T11:05:56.984Z,25.50
2018-10-09T11:08:26.364Z,27.30
2018-10-09T11:10:55.610Z,26.80
2018-10-09T11:13:24.928Z,31.87
2018-10-09T11:15:54.195Z,29.20
2018-10-09T11:18:23.479Z,33.67
2018-10-09T11:20:52.751Z,29.80
2018-10-09T11:23:22.051Z,28.10
2018-10-09T11:25:51.425Z,26.10
2018-10-09T11:28:20.734Z,25.47
2018-10-09T11:30:50.002Z,28.43
2018-10-09T11:33:19.286Z,23.10
2018-10-09T11:35:48.551Z,22.23
2018-10-09T11:38:17.849Z,21.70
2018-10-09T11:40:47.125Z,24.07
2018-10-09T11:43:16.448Z,21.90
2018-10-09T11:45:45.777Z,25.30
2018-10-09T11:48:15.099Z,26.63
2018-10-09T11:50:44.403Z,23.97
2018-10-09T11:53:13.723Z,21.17
2018-10-09T11:55:43.010Z,20.57
2018-10-09T11:58:12.329Z,21.50
2018-10-09T12:00:42.879Z,19.03
2018-10-09T12:03:12.182Z,20.80
2018-10-09T12:05:41.472Z,22.63
2018-10-09T12:08:10.793Z,24.80
2018-10-09T12:10:40.098Z,18.70
2018-10-09T12:13:09.412Z,19.43
2018-10-09T12:15:38.821Z,23.57
2018-10-09T12:18:08.125Z,20.50
2018-10-09T12:20:37.437Z,23.57
2018-10-09T12:23:06.749Z,21.90
2018-10-09T12:25:36.097Z,25.83
2018-10-09T12:28:05.373Z,22.27
2018-10-09T12:30:34.711Z,23.30
2018-10-09T12:33:04.139Z,21.30
2018-10-09T12:35:33.365Z,23.83
2018-10-09T12:38:02.658Z,26.50
2018-10-09T12:40:31.945Z,20.60
2018-10-09T12:43:01.222Z,22.00
2018-10-09T12:45:30.488Z,25.63
2018-10-09T12:47:59.727Z,26.67
2018-10-09T12:50:29.006Z,20.03
2018-10-09T12:52:58.289Z,21.30
2018-10-09T12:55:27.593Z,22.07
2018-10-09T12:57:56.845Z,21.93
2018-10-09T13:00:26.134Z,22.47
2018-10-09T13:02:55.428Z,25.20
2018-10-09T13:05:25.832Z,24.23
2018-10-09T13:07:55.085Z,23.27
2018-10-09T13:10:24.371Z,25.17
2018-10-09T13:12:53.597Z,27.60
2018-10-09T13:15:22.887Z,24.60
2018-10-09T13:17:52.147Z,27.33
2018-10-09T13:20:21.429Z,26.93
2018-10-09T13:22:50.737Z,26.70
2018-10-09T13:25:19.999Z,27.10
2018-10-09T13:27:49.262Z,25.20
2018-10-09T13:30:18.521Z,25.80
2018-10-09T13:32:47.787Z,27.60
2018-10-09T13:35:17.071Z,26.33
2018-10-09T13:37:46.328Z,25.80
2018-10-09T13:40:15.618Z,24.47
2018-10-09T13:42:44.893Z,24.60
2018-10-09T13:45:14.145Z,23.80
2018-10-09T13:47:43.430Z,22.57
2018-10-09T13:50:12.673Z,24.00
2018-10-09T13:52:42.077Z,24.53
2018-10-09T13:55:11.416Z,22.00
2018-10-09T13:57:40.736Z,25.50
2018-10-09T14:00:09.986Z,22.13
2018-10-09T14:02:39.266Z,23.20
2018-10-09T14:05:08.579Z,21.23
2018-10-09T14:07:37.878Z,19.53
2018-10-09T14:10:07.449Z,16.40
2018-10-09T14:12:36.752Z,17.10
2018-10-09T14:15:06.091Z,15.80
2018-10-09T14:17:35.333Z,18.70
2018-10-09T14:20:04.613Z,17.00
2018-10-09T14:22:33.941Z,17.40
2018-10-09T14:25:03.243Z,18.07
2018-10-09T14:27:32.493Z,17.53
2018-10-09T14:30:01.730Z,17.37
2018-10-09T14:32:31.004Z,16.30
2018-10-09T14:35:00.357Z,15.60
2018-10-09T14:37:29.653Z,15.50
2018-10-09T14:39:58.909Z,14.50
2018-10-09T14:42:28.217Z,14.80
2018-10-09T14:44:57.487Z,14.93
2018-10-09T14:47:26.805Z,14.93
2018-10-09T14:49:56.025Z,15.90
2018-10-09T14:52:25.306Z,14.93
2018-10-09T14:54:54.669Z,15.80
2018-10-09T14:57:24.042Z,13.10
2018-10-09T14:59:53.334Z,13.13
2018-10-09T15:02:22.642Z,12.77
2018-10-09T15:04:51.914Z,12.10
2018-10-09T15:07:21.399Z,12.33
2018-10-09T15:09:50.676Z,12.60
2018-10-09T15:12:19.941Z,11.47
2018-10-09T15:14:49.178Z,12.23
2018-10-09T15:17:18.487Z,11.20
2018-10-09T15:19:47.731Z,10.87
2018-10-09T15:22:17.027Z,12.23
2018-10-09T15:24:46.270Z,11.43
2018-10-09T15:27:15.527Z,11.30
2018-10-09T15:29:44.805Z,10.87
2018-10-09T15:32:14.054Z,10.30
2018-10-09T15:34:43.346Z,9.60
2018-10-09T15:37:12.597Z,9.90
2018-10-09T15:39:41.905Z,10.50
2018-10-09T15:42:11.175Z,9.53
2018-10-09T15:44:40.441Z,10.67
2018-10-09T15:47:09.727Z,10.53
2018-10-09T15:49:39.035Z,12.07
2018-10-09T15:52:08.304Z,10.20
2018-10-09T15:54:37.595Z,10.37
2018-10-09T15:57:07.165Z,10.90
2018-10-09T15:59:36.442Z,10.93
2018-10-09T16:02:05.708Z,10.73
2018-10-09T16:04:34.984Z,9.17
2018-10-09T16:07:04.305Z,10.67
2018-10-09T16:09:33.602Z,9.80
2018-10-09T16:12:02.895Z,10.20
2018-10-09T16:14:32.175Z,9.93
2018-10-09T16:17:01.436Z,10.03
2018-10-09T16:19:30.726Z,10.47
2018-10-09T16:21:59.986Z,11.00
2018-10-09T16:24:29.226Z,11.70
2018-10-09T16:26:58.487Z,11.40
2018-10-09T16:29:27.743Z,11.57
2018-10-09T16:31:56.963Z,11.50
2018-10-09T16:34:26.249Z,10.23
2018-10-09T16:36:55.524Z,11.23
2018-10-09T16:39:24.824Z,13.03
2018-10-09T16:41:54.104Z,13.03
2018-10-09T16:44:23.355Z,11.80
2018-10-09T16:46:52.637Z,12.13
2018-10-09T16:49:21.906Z,12.40
2018-10-09T16:51:51.167Z,12.60
2018-10-09T16:54:20.444Z,13.03
2018-10-09T16:56:49.734Z,13.30
2018-10-09T16:59:19.002Z,12.20
2018-10-09T17:01:48.322Z,13.27
2018-10-09T17:04:17.574Z,12.50
2018-10-09T17:06:46.942Z,12.60
2018-10-09T17:09:16.145Z,12.37
2018-10-09T17:11:45.433Z,12.47
2018-10-09T17:14:14.737Z,13.53
2018-10-09T17:16:44.002Z,13.63
2018-10-09T17:19:13.285Z,12.50
2018-10-09T17:21:42.602Z,13.00
2018-10-09T17:24:11.853Z,15.43
2018-10-09T17:26:41.174Z,14.00
2018-10-09T17:29:10.454Z,15.07
2018-10-09T17:31:39.714Z,14.87
2018-10-09T17:34:08.978Z,15.03
2018-10-09T17:36:38.249Z,15.03
2018-10-09T17:39:09.422Z,16.33
2018-10-09T17:41:39.082Z,15.50
2018-10-09T17:44:08.424Z,17.87
2018-10-09T17:46:38.389Z,18.73
2018-10-09T17:49:07.627Z,17.10
2018-10-09T17:51:36.962Z,18.07
2018-10-09T17:54:06.240Z,16.53
2018-10-09T17:56:35.555Z,18.20
2018-10-09T17:59:04.819Z,18.00
2018-10-09T18:01:34.131Z,16.10
2018-10-09T18:04:03.461Z,17.40
2018-10-09T18:06:32.802Z,18.53
2018-10-09T18:09:02.091Z,17.97
2018-10-09T18:11:31.382Z,17.50
2018-10-09T18:14:00.643Z,18.93
2018-10-09T18:16:29.973Z,17.73
2018-10-09T18:18:59.190Z,17.80
2018-10-09T18:21:28.482Z,17.13
2018-10-09T18:23:57.721Z,20.67
2018-10-09T18:26:27.030Z,20.83
2018-10-09T18:28:56.391Z,18.97
2018-10-09T18:31:25.879Z,19.77
2018-10-09T18:33:55.163Z,20.33
2018-10-09T18:36:24.463Z,19.37
2018-10-09T18:38:53.740Z,18.80
2018-10-09T18:41:23.026Z,18.23
2018-10-09T18:43:52.345Z,18.57
2018-10-09T18:46:21.615Z,18.17
2018-10-09T18:48:50.992Z,18.30
2018-10-09T18:51:20.281Z,21.13
2018-10-09T18:53:49.573Z,22.70
2018-10-09T18:56:18.833Z,20.23
2018-10-09T18:58:48.185Z,20.37
2018-10-09T19:01:17.438Z,18.00
2018-10-09T19:03:46.722Z,19.97
2018-10-09T19:06:16.016Z,20.57
2018-10-09T19:08:45.324Z,21.40
2018-10-09T19:11:14.738Z,20.10
2018-10-09T19:13:44.053Z,21.30
2018-10-09T19:16:13.957Z,20.67
2018-10-09T19:18:43.259Z,21.70
2018-10-09T19:21:12.543Z,19.13
2018-10-09T19:23:41.838Z,22.43
2018-10-09T19:26:11.135Z,21.27
2018-10-09T19:28:40.436Z,25.70
2018-10-09T19:31:09.765Z,31.23
2018-10-09T19:33:39.082Z,32.00
2018-10-09T19:36:08.394Z,20.70
2018-10-09T19:38:37.742Z,18.80
2018-10-09T19:41:07.265Z,60.27
2018-10-09T19:43:36.537Z,21.40
2018-10-09T19:46:08.150Z,18.67
2018-10-09T19:48:37.449Z,18.93
2018-10-09T19:51:06.839Z,21.07
2018-10-09T19:53:36.013Z,20.23
2018-10-09T19:56:05.321Z,20.40
2018-10-09T19:58:34.622Z,22.37
2018-10-09T20:01:03.925Z,22.50
2018-10-09T20:03:33.199Z,20.13
2018-10-09T20:06:02.554Z,23.43
2018-10-09T20:08:31.822Z,19.37
2018-10-09T20:11:01.077Z,19.83
2018-10-09T20:13:30.326Z,20.33
2018-10-09T20:15:59.646Z,20.73
2018-10-09T20:18:28.960Z,21.73
2018-10-09T20:20:58.346Z,23.20
2018-10-09T20:23:27.578Z,20.30
2018-10-09T20:25:56.882Z,20.30
2018-10-09T20:28:26.123Z,22.50
2018-10-09T20:30:55.438Z,18.50
2018-10-09T20:33:24.777Z,20.83
2018-10-09T20:35:54.142Z,21.30
2018-10-09T20:38:23.418Z,23.37
2018-10-09T20:40:52.702Z,23.90
2018-10-09T20:43:21.939Z,22.47
2018-10-09T20:45:51.262Z,28.97
2018-10-09T20:48:20.556Z,22.10
2018-10-09T20:50:49.917Z,20.50
2018-10-09T20:53:19.200Z,24.53
2018-10-09T20:55:48.493Z,24.80
2018-10-09T20:58:17.753Z,25.70
2018-10-09T21:00:47.047Z,25.30
2018-10-09T21:03:16.317Z,24.50
2018-10-09T21:05:45.836Z,23.07
2018-10-09T21:08:15.140Z,21.70
2018-10-09T21:10:44.579Z,19.80
2018-10-09T21:13:13.847Z,21.70
2018-10-09T21:15:43.092Z,21.30
2018-10-09T21:18:12.366Z,22.20
2018-10-09T21:20:41.677Z,20.77
2018-10-09T21:23:10.934Z,21.57
2018-10-09T21:25:40.249Z,22.70
2018-10-09T21:28:09.581Z,22.37
2018-10-09T21:30:38.884Z,20.90
2018-10-09T21:33:08.137Z,23.73
2018-10-09T21:35:37.618Z,25.60
2018-10-09T21:38:06.902Z,22.80
2018-10-09T21:40:36.233Z,23.67
2018-10-09T21:43:05.542Z,24.83
2018-10-09T21:45:34.812Z,24.40
2018-10-09T21:48:05.095Z,24.13
2018-10-09T21:50:34.381Z,22.30
2018-10-09T21:53:03.650Z,21.77
2018-10-09T21:55:32.922Z,22.03
2018-10-09T21:58:02.224Z,21.30
2018-10-09T22:00:35.671Z,20.93
2018-10-09T22:03:04.975Z,21.10
2018-10-09T22:05:34.235Z,22.70
2018-10-09T22:08:03.618Z,23.33
2018-10-09T22:10:32.870Z,27.03
2018-10-09T22:13:02.146Z,24.27
2018-10-09T22:15:31.427Z,26.70
2018-10-09T22:18:00.745Z,24.50
2018-10-09T22:20:30.008Z,24.20
2018-10-09T22:22:59.306Z,23.87
2018-10-09T22:25:28.616Z,22.43
2018-10-09T22:27:57.911Z,20.87
2018-10-09T22:30:27.178Z,22.40
2018-10-09T22:32:56.477Z,22.83
2018-10-09T22:35:25.778Z,20.67
2018-10-09T22:37:55.074Z,23.50
2018-10-09T22:40:24.355Z,26.03
2018-10-09T22:42:53.642Z,25.73
2018-10-09T22:45:22.918Z,24.67
2018-10-09T22:47:52.262Z,24.70
2018-10-09T22:50:21.574Z,25.37
2018-10-09T22:52:51.012Z,25.57
2018-10-09T22:55:20.402Z,25.63
2018-10-09T22:57:49.743Z,29.73
2018-10-09T23:00:19.085Z,26.60
2018-10-09T23:02:48.404Z,26.63
2018-10-09T23:05:17.657Z,25.00
2018-10-09T23:07:46.972Z,25.67
2018-10-09T23:10:16.307Z,24.60
2018-10-09T23:12:45.598Z,23.30
2018-10-09T23:15:14.929Z,24.77
2018-10-09T23:17:44.315Z,25.00
2018-10-09T23:20:13.629Z,23.20
2018-10-09T23:22:42.920Z,23.27
2018-10-09T23:25:12.390Z,23.50
2018-10-09T23:27:41.700Z,25.43
2018-10-09T23:30:11.366Z,27.23
2018-10-09T23:32:40.710Z,23.03
2018-10-09T23:35:09.990Z,24.27
2018-10-09T23:37:39.283Z,21.37
2018-10-09T23:40:08.569Z,26.17
2018-10-09T23:42:37.865Z,24.97
2018-10-09T23:45:07.189Z,25.43
2018-10-09T23:47:36.470Z,23.87
2018-10-09T23:50:05.790Z,22.17
2018-10-09T23:52:35.067Z,22.50
2018-10-09T23:55:04.349Z,21.70
2018-10-09T23:57:33.618Z,22.50
